sensor_id;sensor_type;location;lat;lon;timestamp;P1;durP1;ratioP1;P2;durP2;ratioP2
18999;SDS011;9633;50.980;13.850;2023-02-03T00:01:20;17.80;;;11.13;;
18999;SDS011;9633;50.980;13.850;2023-02-03T00:02:53;22.77;;;12.50;;
18999;SDS011;9633;50.980;13.850;2023-02-03T00:04:27;15.87;;;10.67;;
18999;SDS011;9633;50.980;13.850;2023-02-03T00:06:00;17.13;;;11.53;;
18999;SDS011;9633;50.980;13.850;2023-02-03T00:07:35;16.80;;;11.37;;
18999;SDS011;9633;50.980;13.850;2023-02-03T00:09:10;16.37;;;11.77;;
18999;SDS011;9633;50.980;13.850;2023-02-03T00:10:43;20.30;;;11.97;;
18999;SDS011;9633;50.980;13.850;2023-02-03T00:12:16;16.67;;;11.10;;
18999;SDS011;9633;50.980;13.850;2023-02-03T00:13:50;26.27;;;12.53;;
18999;SDS011;9633;50.980;13.850;2023-02-03T00:15:24;21.60;;;12.60;;
18999;SDS011;9633;50.980;13.850;2023-02-03T00:16:57;22.17;;;13.57;;
18999;SDS011;9633;50.980;13.850;2023-02-03T00:18:30;17.97;;;11.50;;
18999;SDS011;9633;50.980;13.850;2023-02-03T00:20:03;17.03;;;12.03;;
18999;SDS011;9633;50.980;13.850;2023-02-03T00:21:37;17.43;;;12.53;;
18999;SDS011;9633;50.980;13.850;2023-02-03T00:23:10;19.23;;;12.57;;
18999;SDS011;9633;50.980;13.850;2023-02-03T00:24:45;18.57;;;13.63;;
18999;SDS011;9633;50.980;13.850;2023-02-03T00:26:18;22.57;;;14.43;;
18999;SDS011;9633;50.980;13.850;2023-02-03T00:27:51;18.17;;;12.60;;
18999;SDS011;9633;50.980;13.850;2023-02-03T00:29:25;20.97;;;13.87;;
18999;SDS011;9633;50.980;13.850;2023-02-03T00:30:58;22.57;;;15.13;;
18999;SDS011;9633;50.980;13.850;2023-02-03T00:32:31;25.77;;;15.50;;
18999;SDS011;9633;50.980;13.850;2023-02-03T00:34:04;24.60;;;16.07;;
18999;SDS011;9633;50.980;13.850;2023-02-03T00:35:38;26.03;;;15.43;;
18999;SDS011;9633;50.980;13.850;2023-02-03T00:37:11;28.30;;;15.80;;
18999;SDS011;9633;50.980;13.850;2023-02-03T00:38:45;28.33;;;15.80;;
18999;SDS011;9633;50.980;13.850;2023-02-03T00:40:21;25.43;;;16.43;;
18999;SDS011;9633;50.980;13.850;2023-02-03T00:41:55;29.77;;;16.50;;
18999;SDS011;9633;50.980;13.850;2023-02-03T00:43:28;26.63;;;16.37;;
18999;SDS011;9633;50.980;13.850;2023-02-03T00:45:02;22.10;;;15.43;;
18999;SDS011;9633;50.980;13.850;2023-02-03T00:46:36;25.00;;;16.80;;
18999;SDS011;9633;50.980;13.850;2023-02-03T00:48:09;28.23;;;16.53;;
18999;SDS011;9633;50.980;13.850;2023-02-03T00:49:43;24.83;;;15.67;;
18999;SDS011;9633;50.980;13.850;2023-02-03T00:51:16;24.00;;;15.47;;
18999;SDS011;9633;50.980;13.850;2023-02-03T00:52:49;26.50;;;15.63;;
18999;SDS011;9633;50.980;13.850;2023-02-03T00:54:22;22.10;;;15.20;;
18999;SDS011;9633;50.980;13.850;2023-02-03T00:55:57;22.30;;;15.60;;
18999;SDS011;9633;50.980;13.850;2023-02-03T00:57:30;22.77;;;14.40;;
18999;SDS011;9633;50.980;13.850;2023-02-03T00:59:03;22.73;;;14.40;;
18999;SDS011;9633;50.980;13.850;2023-02-03T01:00:37;21.83;;;15.13;;
18999;SDS011;9633;50.980;13.850;2023-02-03T01:02:10;24.30;;;15.07;;
18999;SDS011;9633;50.980;13.850;2023-02-03T01:03:43;23.37;;;14.67;;
18999;SDS011;9633;50.980;13.850;2023-02-03T01:05:15;25.60;;;15.37;;
18999;SDS011;9633;50.980;13.850;2023-02-03T01:06:48;23.50;;;14.37;;
18999;SDS011;9633;50.980;13.850;2023-02-03T01:08:22;26.87;;;14.80;;
18999;SDS011;9633;50.980;13.850;2023-02-03T01:09:55;24.23;;;15.17;;
18999;SDS011;9633;50.980;13.850;2023-02-03T01:11:30;21.50;;;14.43;;
18999;SDS011;9633;50.980;13.850;2023-02-03T01:13:04;22.37;;;13.80;;
18999;SDS011;9633;50.980;13.850;2023-02-03T01:14:37;17.37;;;10.10;;
18999;SDS011;9633;50.980;13.850;2023-02-03T01:16:11;15.27;;;8.20;;
18999;SDS011;9633;50.980;13.850;2023-02-03T01:17:45;14.03;;;7.57;;
18999;SDS011;9633;50.980;13.850;2023-02-03T01:19:18;14.70;;;8.90;;
18999;SDS011;9633;50.980;13.850;2023-02-03T01:20:51;20.03;;;10.87;;
18999;SDS011;9633;50.980;13.850;2023-02-03T01:22:25;15.73;;;9.27;;
18999;SDS011;9633;50.980;13.850;2023-02-03T01:24:00;16.63;;;6.30;;
18999;SDS011;9633;50.980;13.850;2023-02-03T01:25:34;17.83;;;7.40;;
18999;SDS011;9633;50.980;13.850;2023-02-03T01:27:09;14.53;;;9.47;;
18999;SDS011;9633;50.980;13.850;2023-02-03T01:28:42;15.87;;;10.00;;
18999;SDS011;9633;50.980;13.850;2023-02-03T01:30:15;17.90;;;9.67;;
18999;SDS011;9633;50.980;13.850;2023-02-03T01:31:50;13.63;;;9.03;;
18999;SDS011;9633;50.980;13.850;2023-02-03T01:33:23;18.20;;;8.37;;
18999;SDS011;9633;50.980;13.850;2023-02-03T01:34:57;12.77;;;7.63;;
18999;SDS011;9633;50.980;13.850;2023-02-03T01:36:30;16.90;;;7.87;;
18999;SDS011;9633;50.980;13.850;2023-02-03T01:38:05;10.07;;;6.63;;
18999;SDS011;9633;50.980;13.850;2023-02-03T01:39:39;10.63;;;6.90;;
18999;SDS011;9633;50.980;13.850;2023-02-03T01:41:14;12.00;;;6.70;;
18999;SDS011;9633;50.980;13.850;2023-02-03T01:42:49;12.13;;;7.10;;
18999;SDS011;9633;50.980;13.850;2023-02-03T01:44:39;12.23;;;6.37;;
18999;SDS011;9633;50.980;13.850;2023-02-03T01:46:21;9.83;;;6.30;;
18999;SDS011;9633;50.980;13.850;2023-02-03T01:47:59;11.47;;;5.30;;
18999;SDS011;9633;50.980;13.850;2023-02-03T01:49:34;12.30;;;5.70;;
18999;SDS011;9633;50.980;13.850;2023-02-03T01:51:07;10.53;;;5.37;;
18999;SDS011;9633;50.980;13.850;2023-02-03T01:52:41;11.33;;;4.67;;
18999;SDS011;9633;50.980;13.850;2023-02-03T01:54:17;8.60;;;4.70;;
18999;SDS011;9633;50.980;13.850;2023-02-03T01:55:54;8.43;;;3.90;;
18999;SDS011;9633;50.980;13.850;2023-02-03T01:57:30;10.57;;;4.10;;
18999;SDS011;9633;50.980;13.850;2023-02-03T01:59:06;7.73;;;4.00;;
18999;SDS011;9633;50.980;13.850;2023-02-03T02:00:40;7.23;;;3.97;;
18999;SDS011;9633;50.980;13.850;2023-02-03T02:02:14;10.07;;;3.83;;
18999;SDS011;9633;50.980;13.850;2023-02-03T02:03:47;10.47;;;3.90;;
18999;SDS011;9633;50.980;13.850;2023-02-03T02:05:24;10.23;;;3.83;;
18999;SDS011;9633;50.980;13.850;2023-02-03T02:07:02;9.93;;;4.27;;
18999;SDS011;9633;50.980;13.850;2023-02-03T02:08:35;6.73;;;3.93;;
18999;SDS011;9633;50.980;13.850;2023-02-03T02:10:10;10.80;;;4.23;;
18999;SDS011;9633;50.980;13.850;2023-02-03T02:11:45;11.63;;;4.43;;
18999;SDS011;9633;50.980;13.850;2023-02-03T02:13:18;12.73;;;4.53;;
18999;SDS011;9633;50.980;13.850;2023-02-03T02:14:53;12.20;;;4.80;;
18999;SDS011;9633;50.980;13.850;2023-02-03T02:16:28;10.97;;;4.90;;
18999;SDS011;9633;50.980;13.850;2023-02-03T02:18:17;9.73;;;3.73;;
18999;SDS011;9633;50.980;13.850;2023-02-03T02:20:01;9.97;;;4.00;;
18999;SDS011;9633;50.980;13.850;2023-02-03T02:22:00;9.23;;;4.40;;
18999;SDS011;9633;50.980;13.850;2023-02-03T02:23:50;9.00;;;4.30;;
18999;SDS011;9633;50.980;13.850;2023-02-03T02:25:47;9.33;;;3.87;;
18999;SDS011;9633;50.980;13.850;2023-02-03T02:31:53;8.23;;;3.97;;
18999;SDS011;9633;50.980;13.850;2023-02-03T02:33:33;12.90;;;4.43;;
18999;SDS011;9633;50.980;13.850;2023-02-03T02:35:14;7.10;;;4.57;;
18999;SDS011;9633;50.980;13.850;2023-02-03T02:36:59;11.27;;;4.93;;
18999;SDS011;9633;50.980;13.850;2023-02-03T02:38:37;11.07;;;6.03;;
18999;SDS011;9633;50.980;13.850;2023-02-03T02:40:20;9.10;;;5.83;;
18999;SDS011;9633;50.980;13.850;2023-02-03T02:42:00;13.00;;;7.90;;
18999;SDS011;9633;50.980;13.850;2023-02-03T02:43:40;17.00;;;8.43;;
18999;SDS011;9633;50.980;13.850;2023-02-03T02:45:16;16.80;;;8.53;;
18999;SDS011;9633;50.980;13.850;2023-02-03T02:46:55;12.07;;;8.27;;
18999;SDS011;9633;50.980;13.850;2023-02-03T02:48:32;15.23;;;8.33;;
18999;SDS011;9633;50.980;13.850;2023-02-03T02:50:10;16.73;;;7.70;;
18999;SDS011;9633;50.980;13.850;2023-02-03T02:51:49;19.30;;;8.97;;
18999;SDS011;9633;50.980;13.850;2023-02-03T02:53:25;15.70;;;8.57;;
18999;SDS011;9633;50.980;13.850;2023-02-03T02:55:10;14.73;;;7.50;;
18999;SDS011;9633;50.980;13.850;2023-02-03T02:56:48;11.03;;;7.47;;
18999;SDS011;9633;50.980;13.850;2023-02-03T02:58:24;15.63;;;7.70;;
18999;SDS011;9633;50.980;13.850;2023-02-03T03:00:00;14.07;;;8.37;;
18999;SDS011;9633;50.980;13.850;2023-02-03T03:01:35;13.80;;;7.13;;
18999;SDS011;9633;50.980;13.850;2023-02-03T03:03:13;12.90;;;7.10;;
18999;SDS011;9633;50.980;13.850;2023-02-03T03:04:48;14.27;;;7.07;;
18999;SDS011;9633;50.980;13.850;2023-02-03T03:06:24;13.87;;;7.33;;
18999;SDS011;9633;50.980;13.850;2023-02-03T03:08:00;14.40;;;6.70;;
18999;SDS011;9633;50.980;13.850;2023-02-03T03:09:34;14.37;;;7.63;;
18999;SDS011;9633;50.980;13.850;2023-02-03T03:11:11;10.10;;;7.47;;
18999;SDS011;9633;50.980;13.850;2023-02-03T03:12:45;14.50;;;7.70;;
18999;SDS011;9633;50.980;13.850;2023-02-03T03:14:24;13.80;;;7.30;;
18999;SDS011;9633;50.980;13.850;2023-02-03T03:16:00;12.60;;;6.73;;
18999;SDS011;9633;50.980;13.850;2023-02-03T03:17:40;14.07;;;6.90;;
18999;SDS011;9633;50.980;13.850;2023-02-03T03:19:17;13.70;;;7.70;;
18999;SDS011;9633;50.980;13.850;2023-02-03T03:20:53;14.83;;;7.70;;
18999;SDS011;9633;50.980;13.850;2023-02-03T03:22:33;14.37;;;7.83;;
18999;SDS011;9633;50.980;13.850;2023-02-03T03:24:10;14.97;;;7.13;;
18999;SDS011;9633;50.980;13.850;2023-02-03T03:25:48;11.90;;;7.13;;
18999;SDS011;9633;50.980;13.850;2023-02-03T03:27:28;13.27;;;8.03;;
18999;SDS011;9633;50.980;13.850;2023-02-03T03:29:06;11.77;;;7.20;;
18999;SDS011;9633;50.980;13.850;2023-02-03T03:30:44;9.37;;;6.80;;
18999;SDS011;9633;50.980;13.850;2023-02-03T03:32:18;12.07;;;7.30;;
18999;SDS011;9633;50.980;13.850;2023-02-03T03:33:51;13.43;;;6.50;;
18999;SDS011;9633;50.980;13.850;2023-02-03T03:35:27;13.53;;;6.63;;
18999;SDS011;9633;50.980;13.850;2023-02-03T03:37:05;10.63;;;6.97;;
18999;SDS011;9633;50.980;13.850;2023-02-03T03:38:43;13.50;;;7.00;;
18999;SDS011;9633;50.980;13.850;2023-02-03T03:40:22;15.07;;;7.50;;
18999;SDS011;9633;50.980;13.850;2023-02-03T03:42:00;15.17;;;6.87;;
18999;SDS011;9633;50.980;13.850;2023-02-03T03:43:38;15.00;;;7.07;;
18999;SDS011;9633;50.980;13.850;2023-02-03T03:45:17;15.17;;;6.73;;
18999;SDS011;9633;50.980;13.850;2023-02-03T03:46:55;12.17;;;7.20;;
18999;SDS011;9633;50.980;13.850;2023-02-03T03:48:36;10.20;;;6.77;;
18999;SDS011;9633;50.980;13.850;2023-02-03T03:50:18;13.77;;;6.67;;
18999;SDS011;9633;50.980;13.850;2023-02-03T03:51:57;14.17;;;6.63;;
18999;SDS011;9633;50.980;13.850;2023-02-03T03:53:34;12.47;;;7.43;;
18999;SDS011;9633;50.980;13.850;2023-02-03T03:55:10;10.63;;;6.93;;
18999;SDS011;9633;50.980;13.850;2023-02-03T03:56:46;14.03;;;6.83;;
18999;SDS011;9633;50.980;13.850;2023-02-03T03:58:23;11.60;;;6.53;;
18999;SDS011;9633;50.980;13.850;2023-02-03T03:59:58;10.33;;;6.50;;
18999;SDS011;9633;50.980;13.850;2023-02-03T04:01:41;9.93;;;6.43;;
18999;SDS011;9633;50.980;13.850;2023-02-03T04:03:15;10.57;;;6.50;;
18999;SDS011;9633;50.980;13.850;2023-02-03T04:04:52;12.60;;;7.00;;
18999;SDS011;9633;50.980;13.850;2023-02-03T04:06:25;14.60;;;6.97;;
18999;SDS011;9633;50.980;13.850;2023-02-03T04:07:59;12.13;;;7.20;;
18999;SDS011;9633;50.980;13.850;2023-02-03T04:09:34;11.43;;;6.93;;
18999;SDS011;9633;50.980;13.850;2023-02-03T04:11:07;12.07;;;6.60;;
18999;SDS011;9633;50.980;13.850;2023-02-03T04:12:40;9.90;;;6.13;;
18999;SDS011;9633;50.980;13.850;2023-02-03T04:14:12;10.53;;;6.60;;
18999;SDS011;9633;50.980;13.850;2023-02-03T04:15:45;11.50;;;6.90;;
18999;SDS011;9633;50.980;13.850;2023-02-03T04:17:18;11.43;;;7.33;;
18999;SDS011;9633;50.980;13.850;2023-02-03T04:18:52;15.97;;;8.23;;
18999;SDS011;9633;50.980;13.850;2023-02-03T04:20:24;14.03;;;8.33;;
18999;SDS011;9633;50.980;13.850;2023-02-03T04:21:57;17.37;;;10.47;;
18999;SDS011;9633;50.980;13.850;2023-02-03T04:23:30;15.87;;;9.70;;
18999;SDS011;9633;50.980;13.850;2023-02-03T04:25:04;10.47;;;7.33;;
18999;SDS011;9633;50.980;13.850;2023-02-03T04:26:37;10.43;;;7.60;;
18999;SDS011;9633;50.980;13.850;2023-02-03T04:28:10;11.33;;;7.00;;
18999;SDS011;9633;50.980;13.850;2023-02-03T04:29:43;11.43;;;6.83;;
18999;SDS011;9633;50.980;13.850;2023-02-03T04:31:17;8.80;;;6.40;;
18999;SDS011;9633;50.980;13.850;2023-02-03T04:32:51;6.13;;;4.87;;
18999;SDS011;9633;50.980;13.850;2023-02-03T04:34:24;5.57;;;4.70;;
18999;SDS011;9633;50.980;13.850;2023-02-03T04:35:57;4.90;;;4.27;;
18999;SDS011;9633;50.980;13.850;2023-02-03T04:37:30;5.20;;;4.00;;
18999;SDS011;9633;50.980;13.850;2023-02-03T04:39:05;5.13;;;4.37;;
18999;SDS011;9633;50.980;13.850;2023-02-03T04:40:38;5.53;;;4.20;;
18999;SDS011;9633;50.980;13.850;2023-02-03T04:42:12;4.53;;;3.83;;
18999;SDS011;9633;50.980;13.850;2023-02-03T04:43:44;4.30;;;3.90;;
18999;SDS011;9633;50.980;13.850;2023-02-03T04:45:18;5.00;;;4.47;;
18999;SDS011;9633;50.980;13.850;2023-02-03T04:46:51;5.00;;;4.40;;
18999;SDS011;9633;50.980;13.850;2023-02-03T04:48:24;5.40;;;4.63;;
18999;SDS011;9633;50.980;13.850;2023-02-03T04:49:57;6.10;;;4.80;;
18999;SDS011;9633;50.980;13.850;2023-02-03T04:51:29;5.80;;;5.07;;
18999;SDS011;9633;50.980;13.850;2023-02-03T04:53:02;6.07;;;4.53;;
18999;SDS011;9633;50.980;13.850;2023-02-03T04:54:37;5.90;;;4.93;;
18999;SDS011;9633;50.980;13.850;2023-02-03T04:56:10;6.13;;;5.47;;
18999;SDS011;9633;50.980;13.850;2023-02-03T04:57:43;6.37;;;5.60;;
18999;SDS011;9633;50.980;13.850;2023-02-03T04:59:16;6.00;;;5.40;;
18999;SDS011;9633;50.980;13.850;2023-02-03T05:00:49;6.80;;;5.47;;
18999;SDS011;9633;50.980;13.850;2023-02-03T05:02:22;6.30;;;5.10;;
18999;SDS011;9633;50.980;13.850;2023-02-03T05:03:56;6.20;;;5.20;;
18999;SDS011;9633;50.980;13.850;2023-02-03T05:05:29;7.37;;;4.93;;
18999;SDS011;9633;50.980;13.850;2023-02-03T05:07:02;5.80;;;5.17;;
18999;SDS011;9633;50.980;13.850;2023-02-03T05:08:35;6.30;;;5.70;;
18999;SDS011;9633;50.980;13.850;2023-02-03T05:10:10;5.43;;;4.93;;
18999;SDS011;9633;50.980;13.850;2023-02-03T05:11:43;5.97;;;5.37;;
18999;SDS011;9633;50.980;13.850;2023-02-03T05:13:16;6.67;;;5.60;;
18999;SDS011;9633;50.980;13.850;2023-02-03T05:14:49;6.83;;;5.57;;
18999;SDS011;9633;50.980;13.850;2023-02-03T05:16:22;7.80;;;5.00;;
18999;SDS011;9633;50.980;13.850;2023-02-03T05:17:55;8.47;;;5.87;;
18999;SDS011;9633;50.980;13.850;2023-02-03T05:19:28;5.97;;;5.37;;
18999;SDS011;9633;50.980;13.850;2023-02-03T05:21:01;7.40;;;5.23;;
18999;SDS011;9633;50.980;13.850;2023-02-03T05:22:35;5.77;;;5.17;;
18999;SDS011;9633;50.980;13.850;2023-02-03T05:24:08;7.23;;;6.13;;
18999;SDS011;9633;50.980;13.850;2023-02-03T05:25:43;6.33;;;5.73;;
18999;SDS011;9633;50.980;13.850;2023-02-03T05:27:16;7.07;;;6.07;;
18999;SDS011;9633;50.980;13.850;2023-02-03T05:28:49;6.63;;;5.43;;
18999;SDS011;9633;50.980;13.850;2023-02-03T05:30:23;8.70;;;5.60;;
18999;SDS011;9633;50.980;13.850;2023-02-03T05:31:57;6.90;;;6.20;;
18999;SDS011;9633;50.980;13.850;2023-02-03T05:33:30;8.67;;;5.80;;
18999;SDS011;9633;50.980;13.850;2023-02-03T05:35:02;8.07;;;6.23;;
18999;SDS011;9633;50.980;13.850;2023-02-03T05:36:36;7.27;;;5.60;;
18999;SDS011;9633;50.980;13.850;2023-02-03T05:38:09;7.33;;;6.30;;
18999;SDS011;9633;50.980;13.850;2023-02-03T05:39:42;7.50;;;6.47;;
18999;SDS011;9633;50.980;13.850;2023-02-03T05:41:16;8.33;;;6.37;;
18999;SDS011;9633;50.980;13.850;2023-02-03T05:43:07;7.43;;;6.27;;
18999;SDS011;9633;50.980;13.850;2023-02-03T05:44:39;7.60;;;6.67;;
18999;SDS011;9633;50.980;13.850;2023-02-03T05:46:12;8.37;;;6.97;;
18999;SDS011;9633;50.980;13.850;2023-02-03T05:47:45;9.13;;;7.67;;
18999;SDS011;9633;50.980;13.850;2023-02-03T05:49:19;8.87;;;7.37;;
18999;SDS011;9633;50.980;13.850;2023-02-03T05:50:53;8.10;;;7.30;;
18999;SDS011;9633;50.980;13.850;2023-02-03T05:52:26;8.87;;;7.10;;
18999;SDS011;9633;50.980;13.850;2023-02-03T05:53:59;8.97;;;8.07;;
18999;SDS011;9633;50.980;13.850;2023-02-03T05:55:32;9.20;;;6.53;;
18999;SDS011;9633;50.980;13.850;2023-02-03T05:57:07;9.17;;;7.37;;
18999;SDS011;9633;50.980;13.850;2023-02-03T05:58:40;9.30;;;8.30;;
18999;SDS011;9633;50.980;13.850;2023-02-03T06:00:14;9.13;;;7.53;;
18999;SDS011;9633;50.980;13.850;2023-02-03T06:01:47;9.30;;;7.50;;
18999;SDS011;9633;50.980;13.850;2023-02-03T06:03:20;8.67;;;7.20;;
18999;SDS011;9633;50.980;13.850;2023-02-03T06:04:53;9.93;;;8.17;;
18999;SDS011;9633;50.980;13.850;2023-02-03T06:06:27;9.70;;;8.07;;
18999;SDS011;9633;50.980;13.850;2023-02-03T06:08:04;9.30;;;7.90;;
18999;SDS011;9633;50.980;13.850;2023-02-03T06:09:37;8.80;;;6.97;;
18999;SDS011;9633;50.980;13.850;2023-02-03T06:11:10;8.37;;;6.70;;
18999;SDS011;9633;50.980;13.850;2023-02-03T06:12:45;8.30;;;6.70;;
18999;SDS011;9633;50.980;13.850;2023-02-03T06:14:17;7.83;;;6.80;;
18999;SDS011;9633;50.980;13.850;2023-02-03T06:15:50;8.53;;;7.57;;
18999;SDS011;9633;50.980;13.850;2023-02-03T06:17:23;10.27;;;6.70;;
18999;SDS011;9633;50.980;13.850;2023-02-03T06:18:56;7.10;;;6.40;;
18999;SDS011;9633;50.980;13.850;2023-02-03T06:20:31;8.83;;;6.37;;
18999;SDS011;9633;50.980;13.850;2023-02-03T06:22:04;8.53;;;7.23;;
18999;SDS011;9633;50.980;13.850;2023-02-03T06:23:37;8.07;;;7.00;;
18999;SDS011;9633;50.980;13.850;2023-02-03T06:25:10;8.43;;;7.13;;
18999;SDS011;9633;50.980;13.850;2023-02-03T06:26:44;7.93;;;6.53;;
18999;SDS011;9633;50.980;13.850;2023-02-03T06:28:19;8.57;;;6.97;;
18999;SDS011;9633;50.980;13.850;2023-02-03T06:29:52;8.13;;;6.70;;
18999;SDS011;9633;50.980;13.850;2023-02-03T06:31:25;9.17;;;6.53;;
18999;SDS011;9633;50.980;13.850;2023-02-03T06:32:59;7.03;;;6.10;;
18999;SDS011;9633;50.980;13.850;2023-02-03T06:34:32;7.23;;;6.00;;
18999;SDS011;9633;50.980;13.850;2023-02-03T06:36:05;7.40;;;6.63;;
18999;SDS011;9633;50.980;13.850;2023-02-03T06:37:38;8.20;;;5.77;;
18999;SDS011;9633;50.980;13.850;2023-02-03T06:39:12;6.93;;;5.70;;
18999;SDS011;9633;50.980;13.850;2023-02-03T06:40:45;5.40;;;4.73;;
18999;SDS011;9633;50.980;13.850;2023-02-03T06:42:18;6.57;;;5.30;;
18999;SDS011;9633;50.980;13.850;2023-02-03T06:43:53;5.80;;;5.00;;
18999;SDS011;9633;50.980;13.850;2023-02-03T06:45:26;5.47;;;4.93;;
18999;SDS011;9633;50.980;13.850;2023-02-03T06:46:59;6.20;;;5.60;;
18999;SDS011;9633;50.980;13.850;2023-02-03T06:48:33;5.37;;;4.87;;
18999;SDS011;9633;50.980;13.850;2023-02-03T06:50:06;5.97;;;4.33;;
18999;SDS011;9633;50.980;13.850;2023-02-03T06:51:41;6.90;;;4.90;;
18999;SDS011;9633;50.980;13.850;2023-02-03T06:53:15;5.50;;;4.80;;
18999;SDS011;9633;50.980;13.850;2023-02-03T06:54:48;7.03;;;4.90;;
18999;SDS011;9633;50.980;13.850;2023-02-03T06:56:21;5.93;;;5.33;;
18999;SDS011;9633;50.980;13.850;2023-02-03T06:57:54;5.90;;;5.30;;
18999;SDS011;9633;50.980;13.850;2023-02-03T06:59:28;6.27;;;5.10;;
18999;SDS011;9633;50.980;13.850;2023-02-03T07:01:01;6.87;;;5.70;;
18999;SDS011;9633;50.980;13.850;2023-02-03T07:02:35;7.20;;;5.30;;
18999;SDS011;9633;50.980;13.850;2023-02-03T07:04:08;6.87;;;5.60;;
18999;SDS011;9633;50.980;13.850;2023-02-03T07:05:41;6.50;;;5.30;;
18999;SDS011;9633;50.980;13.850;2023-02-03T07:07:14;6.57;;;5.37;;
18999;SDS011;9633;50.980;13.850;2023-02-03T07:08:47;7.43;;;5.30;;
18999;SDS011;9633;50.980;13.850;2023-02-03T07:10:21;7.53;;;5.83;;
18999;SDS011;9633;50.980;13.850;2023-02-03T07:11:54;6.57;;;5.20;;
18999;SDS011;9633;50.980;13.850;2023-02-03T07:13:27;6.33;;;5.70;;
18999;SDS011;9633;50.980;13.850;2023-02-03T07:15:01;5.63;;;4.80;;
18999;SDS011;9633;50.980;13.850;2023-02-03T07:16:35;6.90;;;5.80;;
18999;SDS011;9633;50.980;13.850;2023-02-03T07:18:08;8.17;;;5.83;;
18999;SDS011;9633;50.980;13.850;2023-02-03T07:19:43;7.33;;;5.63;;
18999;SDS011;9633;50.980;13.850;2023-02-03T07:21:16;7.20;;;5.37;;
18999;SDS011;9633;50.980;13.850;2023-02-03T07:22:53;8.20;;;5.70;;
18999;SDS011;9633;50.980;13.850;2023-02-03T07:24:26;6.80;;;5.23;;
18999;SDS011;9633;50.980;13.850;2023-02-03T07:26:00;6.90;;;5.60;;
18999;SDS011;9633;50.980;13.850;2023-02-03T07:27:35;7.63;;;5.77;;
18999;SDS011;9633;50.980;13.850;2023-02-03T07:29:08;8.40;;;5.87;;
18999;SDS011;9633;50.980;13.850;2023-02-03T07:30:42;6.40;;;5.67;;
18999;SDS011;9633;50.980;13.850;2023-02-03T07:32:15;7.20;;;5.40;;
18999;SDS011;9633;50.980;13.850;2023-02-03T07:33:48;5.53;;;4.60;;
18999;SDS011;9633;50.980;13.850;2023-02-03T07:35:22;6.27;;;5.37;;
18999;SDS011;9633;50.980;13.850;2023-02-03T07:36:55;6.77;;;5.27;;
18999;SDS011;9633;50.980;13.850;2023-02-03T07:38:29;6.60;;;4.63;;
18999;SDS011;9633;50.980;13.850;2023-02-03T07:40:02;5.77;;;4.80;;
18999;SDS011;9633;50.980;13.850;2023-02-03T07:41:36;6.17;;;4.77;;
18999;SDS011;9633;50.980;13.850;2023-02-03T07:43:10;6.50;;;5.57;;
18999;SDS011;9633;50.980;13.850;2023-02-03T07:44:43;6.00;;;4.83;;
18999;SDS011;9633;50.980;13.850;2023-02-03T07:46:17;4.57;;;4.13;;
18999;SDS011;9633;50.980;13.850;2023-02-03T07:47:51;5.17;;;4.43;;
18999;SDS011;9633;50.980;13.850;2023-02-03T07:49:24;6.50;;;4.73;;
18999;SDS011;9633;50.980;13.850;2023-02-03T07:50:57;5.93;;;4.77;;
18999;SDS011;9633;50.980;13.850;2023-02-03T07:52:30;5.00;;;4.50;;
18999;SDS011;9633;50.980;13.850;2023-02-03T07:54:03;5.27;;;4.77;;
18999;SDS011;9633;50.980;13.850;2023-02-03T07:55:37;5.73;;;4.00;;
18999;SDS011;9633;50.980;13.850;2023-02-03T07:57:10;6.47;;;4.50;;
18999;SDS011;9633;50.980;13.850;2023-02-03T07:58:43;4.47;;;4.03;;
18999;SDS011;9633;50.980;13.850;2023-02-03T08:00:17;5.07;;;4.20;;
18999;SDS011;9633;50.980;13.850;2023-02-03T08:01:52;6.23;;;4.30;;
18999;SDS011;9633;50.980;13.850;2023-02-03T08:03:26;5.07;;;4.00;;
18999;SDS011;9633;50.980;13.850;2023-02-03T08:04:59;5.80;;;4.30;;
18999;SDS011;9633;50.980;13.850;2023-02-03T08:06:33;5.43;;;4.07;;
18999;SDS011;9633;50.980;13.850;2023-02-03T08:08:06;6.17;;;4.47;;
18999;SDS011;9633;50.980;13.850;2023-02-03T08:09:39;4.73;;;4.13;;
18999;SDS011;9633;50.980;13.850;2023-02-03T08:11:12;5.07;;;4.03;;
18999;SDS011;9633;50.980;13.850;2023-02-03T08:12:45;4.87;;;4.10;;
18999;SDS011;9633;50.980;13.850;2023-02-03T08:14:18;5.97;;;4.30;;
18999;SDS011;9633;50.980;13.850;2023-02-03T08:15:52;5.00;;;4.03;;
18999;SDS011;9633;50.980;13.850;2023-02-03T08:17:26;5.63;;;3.80;;
18999;SDS011;9633;50.980;13.850;2023-02-03T08:18:59;3.87;;;3.40;;
18999;SDS011;9633;50.980;13.850;2023-02-03T08:20:32;4.03;;;3.63;;
18999;SDS011;9633;50.980;13.850;2023-02-03T08:22:06;4.87;;;4.00;;
18999;SDS011;9633;50.980;13.850;2023-02-03T08:23:39;4.53;;;3.97;;
18999;SDS011;9633;50.980;13.850;2023-02-03T08:25:12;4.80;;;3.67;;
18999;SDS011;9633;50.980;13.850;2023-02-03T08:26:45;5.17;;;3.63;;
18999;SDS011;9633;50.980;13.850;2023-02-03T08:28:19;5.33;;;3.70;;
18999;SDS011;9633;50.980;13.850;2023-02-03T08:29:52;6.13;;;4.70;;
18999;SDS011;9633;50.980;13.850;2023-02-03T08:31:25;4.63;;;3.93;;
18999;SDS011;9633;50.980;13.850;2023-02-03T08:33:00;4.83;;;3.40;;
18999;SDS011;9633;50.980;13.850;2023-02-03T08:34:33;3.90;;;3.40;;
18999;SDS011;9633;50.980;13.850;2023-02-03T08:36:07;5.43;;;3.50;;
18999;SDS011;9633;50.980;13.850;2023-02-03T08:37:41;4.90;;;3.60;;
18999;SDS011;9633;50.980;13.850;2023-02-03T08:39:14;4.60;;;3.73;;
18999;SDS011;9633;50.980;13.850;2023-02-03T08:40:47;3.60;;;3.30;;
18999;SDS011;9633;50.980;13.850;2023-02-03T08:42:21;4.37;;;3.57;;
18999;SDS011;9633;50.980;13.850;2023-02-03T08:43:54;5.13;;;3.50;;
18999;SDS011;9633;50.980;13.850;2023-02-03T08:45:28;4.07;;;3.27;;
18999;SDS011;9633;50.980;13.850;2023-02-03T08:47:02;4.07;;;3.67;;
18999;SDS011;9633;50.980;13.850;2023-02-03T08:48:37;3.60;;;3.30;;
18999;SDS011;9633;50.980;13.850;2023-02-03T08:50:11;3.93;;;3.50;;
18999;SDS011;9633;50.980;13.850;2023-02-03T08:51:45;4.33;;;3.63;;
18999;SDS011;9633;50.980;13.850;2023-02-03T08:53:19;5.03;;;3.00;;
18999;SDS011;9633;50.980;13.850;2023-02-03T08:54:52;3.70;;;3.40;;
18999;SDS011;9633;50.980;13.850;2023-02-03T08:56:25;4.03;;;2.90;;
18999;SDS011;9633;50.980;13.850;2023-02-03T08:57:58;4.27;;;3.10;;
18999;SDS011;9633;50.980;13.850;2023-02-03T08:59:31;3.60;;;2.87;;
18999;SDS011;9633;50.980;13.850;2023-02-03T09:01:07;3.33;;;2.83;;
18999;SDS011;9633;50.980;13.850;2023-02-03T09:02:41;4.10;;;2.53;;
18999;SDS011;9633;50.980;13.850;2023-02-03T09:04:16;3.50;;;2.60;;
18999;SDS011;9633;50.980;13.850;2023-02-03T09:05:54;4.73;;;2.77;;
18999;SDS011;9633;50.980;13.850;2023-02-03T09:07:27;4.73;;;3.27;;
18999;SDS011;9633;50.980;13.850;2023-02-03T09:09:01;2.80;;;2.50;;
18999;SDS011;9633;50.980;13.850;2023-02-03T09:10:34;4.17;;;2.97;;
18999;SDS011;9633;50.980;13.850;2023-02-03T09:12:08;3.17;;;2.70;;
18999;SDS011;9633;50.980;13.850;2023-02-03T09:13:43;3.47;;;3.17;;
18999;SDS011;9633;50.980;13.850;2023-02-03T09:15:16;3.97;;;2.97;;
18999;SDS011;9633;50.980;13.850;2023-02-03T09:16:50;3.57;;;3.10;;
18999;SDS011;9633;50.980;13.850;2023-02-03T09:18:23;3.87;;;2.67;;
18999;SDS011;9633;50.980;13.850;2023-02-03T09:19:57;5.00;;;3.30;;
18999;SDS011;9633;50.980;13.850;2023-02-03T09:21:31;3.60;;;3.10;;
18999;SDS011;9633;50.980;13.850;2023-02-03T09:23:12;4.40;;;3.17;;
18999;SDS011;9633;50.980;13.850;2023-02-03T09:24:45;5.03;;;3.33;;
18999;SDS011;9633;50.980;13.850;2023-02-03T09:26:21;3.40;;;3.10;;
18999;SDS011;9633;50.980;13.850;2023-02-03T09:27:54;3.47;;;3.10;;
18999;SDS011;9633;50.980;13.850;2023-02-03T09:29:27;4.33;;;3.33;;
18999;SDS011;9633;50.980;13.850;2023-02-03T09:31:00;4.60;;;3.37;;